sensor_id;sensor_type;location;lat;lon;timestamp;P1;durP1;ratioP1;P2;durP2;ratioP2
1004;SDS011;491;53.480;10.174;2024-03-25T00:02:09;6.63;;;1.90;;
1004;SDS011;491;53.480;10.174;2024-03-25T00:04:35;3.87;;;0.93;;
1004;SDS011;491;53.480;10.174;2024-03-25T00:07:01;3.00;;;1.27;;
1004;SDS011;491;53.480;10.174;2024-03-25T00:09:27;4.30;;;1.60;;
1004;SDS011;491;53.480;10.174;2024-03-25T00:11:53;5.37;;;1.30;;
1004;SDS011;491;53.480;10.174;2024-03-25T00:14:22;4.83;;;0.73;;
1004;SDS011;491;53.480;10.174;2024-03-25T00:16:49;5.33;;;1.00;;
1004;SDS011;491;53.480;10.174;2024-03-25T00:19:15;4.30;;;1.20;;
1004;SDS011;491;53.480;10.174;2024-03-25T00:21:41;5.10;;;0.70;;
1004;SDS011;491;53.480;10.174;2024-03-25T00:24:07;8.03;;;1.40;;
1004;SDS011;491;53.480;10.174;2024-03-25T00:26:33;4.87;;;1.13;;
1004;SDS011;491;53.480;10.174;2024-03-25T00:28:59;7.10;;;1.57;;
1004;SDS011;491;53.480;10.174;2024-03-25T00:31:25;4.10;;;1.07;;
1004;SDS011;491;53.480;10.174;2024-03-25T00:33:51;7.20;;;1.00;;
1004;SDS011;491;53.480;10.174;2024-03-25T00:36:17;5.70;;;1.73;;
1004;SDS011;491;53.480;10.174;2024-03-25T00:38:43;6.20;;;1.37;;
1004;SDS011;491;53.480;10.174;2024-03-25T00:41:09;3.00;;;0.70;;
1004;SDS011;491;53.480;10.174;2024-03-25T00:43:35;3.10;;;0.80;;
1004;SDS011;491;53.480;10.174;2024-03-25T00:46:01;2.23;;;1.03;;
1004;SDS011;491;53.480;10.174;2024-03-25T00:48:27;2.90;;;0.70;;
1004;SDS011;491;53.480;10.174;2024-03-25T00:50:52;3.60;;;1.27;;
1004;SDS011;491;53.480;10.174;2024-03-25T00:53:18;4.50;;;1.10;;
1004;SDS011;491;53.480;10.174;2024-03-25T00:55:44;2.93;;;1.00;;
1004;SDS011;491;53.480;10.174;2024-03-25T00:58:11;3.10;;;0.50;;
1004;SDS011;491;53.480;10.174;2024-03-25T01:00:37;6.93;;;0.90;;
1004;SDS011;491;53.480;10.174;2024-03-25T01:03:03;3.67;;;0.60;;
1004;SDS011;491;53.480;10.174;2024-03-25T01:05:29;2.63;;;0.60;;
1004;SDS011;491;53.480;10.174;2024-03-25T01:07:54;7.67;;;1.20;;
1004;SDS011;491;53.480;10.174;2024-03-25T01:10:21;2.20;;;0.60;;
1004;SDS011;491;53.480;10.174;2024-03-25T01:12:46;3.43;;;0.57;;
1004;SDS011;491;53.480;10.174;2024-03-25T01:15:12;4.53;;;0.50;;
1004;SDS011;491;53.480;10.174;2024-03-25T01:17:38;5.10;;;1.60;;
1004;SDS011;491;53.480;10.174;2024-03-25T01:20:04;4.50;;;0.97;;
1004;SDS011;491;53.480;10.174;2024-03-25T01:22:31;4.43;;;0.63;;
1004;SDS011;491;53.480;10.174;2024-03-25T01:24:57;3.60;;;1.07;;
1004;SDS011;491;53.480;10.174;2024-03-25T01:27:23;6.80;;;1.43;;
1004;SDS011;491;53.480;10.174;2024-03-25T01:29:49;8.13;;;2.20;;
1004;SDS011;491;53.480;10.174;2024-03-25T01:32:15;2.47;;;0.60;;
1004;SDS011;491;53.480;10.174;2024-03-25T01:34:40;3.83;;;1.17;;
1004;SDS011;491;53.480;10.174;2024-03-25T01:37:06;12.43;;;1.97;;
1004;SDS011;491;53.480;10.174;2024-03-25T01:39:32;4.00;;;1.20;;
1004;SDS011;491;53.480;10.174;2024-03-25T01:41:58;7.90;;;1.80;;
1004;SDS011;491;53.480;10.174;2024-03-25T01:44:24;3.07;;;1.10;;
1004;SDS011;491;53.480;10.174;2024-03-25T01:46:50;5.40;;;1.40;;
1004;SDS011;491;53.480;10.174;2024-03-25T01:49:17;5.20;;;2.37;;
1004;SDS011;491;53.480;10.174;2024-03-25T01:51:44;8.60;;;1.80;;
1004;SDS011;491;53.480;10.174;2024-03-25T01:54:10;9.20;;;3.93;;
1004;SDS011;491;53.480;10.174;2024-03-25T01:56:38;7.13;;;2.00;;
1004;SDS011;491;53.480;10.174;2024-03-25T01:59:06;7.07;;;1.93;;
1004;SDS011;491;53.480;10.174;2024-03-25T02:01:32;6.50;;;2.00;;
1004;SDS011;491;53.480;10.174;2024-03-25T02:03:57;6.83;;;2.40;;
1004;SDS011;491;53.480;10.174;2024-03-25T02:06:24;13.30;;;3.60;;
1004;SDS011;491;53.480;10.174;2024-03-25T02:08:53;7.57;;;2.30;;
1004;SDS011;491;53.480;10.174;2024-03-25T02:11:20;5.73;;;1.90;;
1004;SDS011;491;53.480;10.174;2024-03-25T02:13:46;4.93;;;2.10;;
1004;SDS011;491;53.480;10.174;2024-03-25T02:16:12;6.70;;;2.20;;
1004;SDS011;491;53.480;10.174;2024-03-25T02:18:38;7.37;;;2.57;;
1004;SDS011;491;53.480;10.174;2024-03-25T02:21:04;9.63;;;3.03;;
1004;SDS011;491;53.480;10.174;2024-03-25T02:23:30;5.10;;;2.43;;
1004;SDS011;491;53.480;10.174;2024-03-25T02:25:57;8.80;;;2.63;;
1004;SDS011;491;53.480;10.174;2024-03-25T02:28:23;8.57;;;2.47;;
1004;SDS011;491;53.480;10.174;2024-03-25T02:30:49;10.50;;;3.23;;
1004;SDS011;491;53.480;10.174;2024-03-25T02:33:14;8.30;;;3.20;;
1004;SDS011;491;53.480;10.174;2024-03-25T02:35:41;6.23;;;2.57;;
1004;SDS011;491;53.480;10.174;2024-03-25T02:38:08;9.87;;;3.70;;
1004;SDS011;491;53.480;10.174;2024-03-25T02:40:34;7.13;;;2.63;;
1004;SDS011;491;53.480;10.174;2024-03-25T02:43:00;5.47;;;2.30;;
1004;SDS011;491;53.480;10.174;2024-03-25T02:45:27;5.77;;;1.60;;
1004;SDS011;491;53.480;10.174;2024-03-25T02:47:53;2.97;;;0.83;;
1004;SDS011;491;53.480;10.174;2024-03-25T02:50:19;4.60;;;1.20;;
1004;SDS011;491;53.480;10.174;2024-03-25T02:52:45;6.33;;;1.90;;
1004;SDS011;491;53.480;10.174;2024-03-25T02:55:11;4.10;;;1.70;;
1004;SDS011;491;53.480;10.174;2024-03-25T02:57:36;4.20;;;1.00;;
1004;SDS011;491;53.480;10.174;2024-03-25T03:00:02;3.60;;;0.80;;
1004;SDS011;491;53.480;10.174;2024-03-25T03:02:29;4.00;;;0.93;;
1004;SDS011;491;53.480;10.174;2024-03-25T03:04:55;2.93;;;0.90;;
1004;SDS011;491;53.480;10.174;2024-03-25T03:07:21;4.93;;;1.33;;
1004;SDS011;491;53.480;10.174;2024-03-25T03:09:47;7.57;;;1.13;;
1004;SDS011;491;53.480;10.174;2024-03-25T03:12:13;3.03;;;0.73;;
1004;SDS011;491;53.480;10.174;2024-03-25T03:14:39;5.23;;;0.83;;
1004;SDS011;491;53.480;10.174;2024-03-25T03:17:05;3.23;;;1.10;;
1004;SDS011;491;53.480;10.174;2024-03-25T03:19:31;4.27;;;2.00;;
1004;SDS011;491;53.480;10.174;2024-03-25T03:21:57;7.73;;;1.57;;
1004;SDS011;491;53.480;10.174;2024-03-25T03:24:23;4.63;;;1.07;;
1004;SDS011;491;53.480;10.174;2024-03-25T03:26:49;8.50;;;2.53;;
1004;SDS011;491;53.480;10.174;2024-03-25T03:29:15;8.67;;;1.60;;
1004;SDS011;491;53.480;10.174;2024-03-25T03:31:41;7.10;;;1.97;;
1004;SDS011;491;53.480;10.174;2024-03-25T03:34:07;4.47;;;1.53;;
1004;SDS011;491;53.480;10.174;2024-03-25T03:36:33;4.00;;;1.80;;
1004;SDS011;491;53.480;10.174;2024-03-25T03:38:59;7.60;;;1.80;;
1004;SDS011;491;53.480;10.174;2024-03-25T03:41:25;4.70;;;1.30;;
1004;SDS011;491;53.480;10.174;2024-03-25T03:43:51;2.70;;;0.93;;
1004;SDS011;491;53.480;10.174;2024-03-25T03:46:17;5.60;;;1.43;;
1004;SDS011;491;53.480;10.174;2024-03-25T03:48:43;9.07;;;1.60;;
1004;SDS011;491;53.480;10.174;2024-03-25T03:51:09;5.23;;;1.60;;
1004;SDS011;491;53.480;10.174;2024-03-25T03:53:35;4.23;;;1.50;;
1004;SDS011;491;53.480;10.174;2024-03-25T03:56:02;5.40;;;1.20;;
1004;SDS011;491;53.480;10.174;2024-03-25T03:58:32;4.73;;;1.30;;
1004;SDS011;491;53.480;10.174;2024-03-25T04:00:58;6.43;;;2.10;;
1004;SDS011;491;53.480;10.174;2024-03-25T04:03:24;7.90;;;1.50;;
1004;SDS011;491;53.480;10.174;2024-03-25T04:05:50;4.83;;;1.87;;
1004;SDS011;491;53.480;10.174;2024-03-25T04:08:16;11.87;;;1.80;;
1004;SDS011;491;53.480;10.174;2024-03-25T04:10:43;4.97;;;1.37;;
1004;SDS011;491;53.480;10.174;2024-03-25T04:13:09;5.40;;;1.50;;
1004;SDS011;491;53.480;10.174;2024-03-25T04:15:36;3.10;;;1.50;;
1004;SDS011;491;53.480;10.174;2024-03-25T04:18:02;3.37;;;1.00;;
1004;SDS011;491;53.480;10.174;2024-03-25T04:20:28;5.20;;;2.40;;
1004;SDS011;491;53.480;10.174;2024-03-25T04:22:54;3.20;;;0.63;;
1004;SDS011;491;53.480;10.174;2024-03-25T04:25:20;4.10;;;1.03;;
1004;SDS011;491;53.480;10.174;2024-03-25T04:27:46;3.43;;;1.80;;
1004;SDS011;491;53.480;10.174;2024-03-25T04:30:12;1.80;;;1.00;;
1004;SDS011;491;53.480;10.174;2024-03-25T04:32:39;4.63;;;0.90;;
1004;SDS011;491;53.480;10.174;2024-03-25T04:35:05;3.50;;;0.50;;
1004;SDS011;491;53.480;10.174;2024-03-25T04:37:32;4.57;;;0.70;;
1004;SDS011;491;53.480;10.174;2024-03-25T04:39:58;2.73;;;0.93;;
1004;SDS011;491;53.480;10.174;2024-03-25T04:42:24;4.17;;;0.80;;
1004;SDS011;491;53.480;10.174;2024-03-25T04:44:50;7.10;;;1.50;;
1004;SDS011;491;53.480;10.174;2024-03-25T04:47:16;4.60;;;1.30;;
1004;SDS011;491;53.480;10.174;2024-03-25T04:49:42;5.03;;;1.20;;
1004;SDS011;491;53.480;10.174;2024-03-25T04:52:08;6.80;;;0.50;;
1004;SDS011;491;53.480;10.174;2024-03-25T04:54:34;4.20;;;0.70;;
1004;SDS011;491;53.480;10.174;2024-03-25T04:57:00;3.37;;;1.10;;
1004;SDS011;491;53.480;10.174;2024-03-25T04:59:26;1.90;;;0.77;;
1004;SDS011;491;53.480;10.174;2024-03-25T05:01:52;4.90;;;0.97;;
1004;SDS011;491;53.480;10.174;2024-03-25T05:04:18;2.53;;;1.33;;
1004;SDS011;491;53.480;10.174;2024-03-25T05:06:45;3.47;;;0.80;;
1004;SDS011;491;53.480;10.174;2024-03-25T05:09:11;2.97;;;0.57;;
1004;SDS011;491;53.480;10.174;2024-03-25T05:11:37;1.73;;;0.83;;
1004;SDS011;491;53.480;10.174;2024-03-25T05:14:03;2.73;;;0.70;;
1004;SDS011;491;53.480;10.174;2024-03-25T05:16:29;2.07;;;0.67;;
1004;SDS011;491;53.480;10.174;2024-03-25T05:18:55;2.23;;;0.50;;
1004;SDS011;491;53.480;10.174;2024-03-25T05:21:21;2.77;;;0.73;;
1004;SDS011;491;53.480;10.174;2024-03-25T05:23:47;2.50;;;0.80;;
1004;SDS011;491;53.480;10.174;2024-03-25T05:26:13;4.23;;;0.90;;
1004;SDS011;491;53.480;10.174;2024-03-25T05:28:39;5.80;;;1.47;;
1004;SDS011;491;53.480;10.174;2024-03-25T05:31:06;2.03;;;0.60;;
1004;SDS011;491;53.480;10.174;2024-03-25T05:33:32;2.77;;;1.00;;
1004;SDS011;491;53.480;10.174;2024-03-25T05:35:59;3.80;;;0.53;;
1004;SDS011;491;53.480;10.174;2024-03-25T05:38:25;3.20;;;1.23;;
1004;SDS011;491;53.480;10.174;2024-03-25T05:40:51;2.40;;;1.03;;
1004;SDS011;491;53.480;10.174;2024-03-25T05:43:17;2.57;;;0.30;;
1004;SDS011;491;53.480;10.174;2024-03-25T05:45:52;5.63;;;0.93;;
1004;SDS011;491;53.480;10.174;2024-03-25T05:48:18;3.00;;;1.10;;
1004;SDS011;491;53.480;10.174;2024-03-25T05:50:44;3.57;;;1.13;;
1004;SDS011;491;53.480;10.174;2024-03-25T05:53:10;3.20;;;0.93;;
1004;SDS011;491;53.480;10.174;2024-03-25T05:55:36;1.57;;;0.40;;
1004;SDS011;491;53.480;10.174;2024-03-25T05:58:02;2.20;;;1.33;;
1004;SDS011;491;53.480;10.174;2024-03-25T06:00:31;3.50;;;0.70;;
1004;SDS011;491;53.480;10.174;2024-03-25T06:02:57;3.87;;;1.40;;
1004;SDS011;491;53.480;10.174;2024-03-25T06:05:23;5.73;;;2.40;;
1004;SDS011;491;53.480;10.174;2024-03-25T06:07:49;4.53;;;1.50;;
1004;SDS011;491;53.480;10.174;2024-03-25T06:10:15;3.43;;;1.50;;
1004;SDS011;491;53.480;10.174;2024-03-25T06:12:41;3.40;;;1.40;;
1004;SDS011;491;53.480;10.174;2024-03-25T06:15:07;7.20;;;0.87;;
1004;SDS011;491;53.480;10.174;2024-03-25T06:17:33;4.43;;;0.53;;
1004;SDS011;491;53.480;10.174;2024-03-25T06:19:59;5.77;;;1.30;;
1004;SDS011;491;53.480;10.174;2024-03-25T06:22:25;4.03;;;1.03;;
1004;SDS011;491;53.480;10.174;2024-03-25T06:24:51;2.33;;;1.10;;
1004;SDS011;491;53.480;10.174;2024-03-25T06:27:18;5.20;;;1.83;;
1004;SDS011;491;53.480;10.174;2024-03-25T06:29:44;2.33;;;0.80;;
1004;SDS011;491;53.480;10.174;2024-03-25T06:32:11;3.07;;;1.10;;
1004;SDS011;491;53.480;10.174;2024-03-25T06:34:56;3.33;;;0.93;;
1004;SDS011;491;53.480;10.174;2024-03-25T06:37:25;2.33;;;0.43;;
1004;SDS011;491;53.480;10.174;2024-03-25T06:39:51;2.10;;;0.70;;
1004;SDS011;491;53.480;10.174;2024-03-25T06:42:18;5.57;;;0.83;;
1004;SDS011;491;53.480;10.174;2024-03-25T06:44:44;1.97;;;0.40;;
1004;SDS011;491;53.480;10.174;2024-03-25T06:47:14;1.67;;;0.80;;
1004;SDS011;491;53.480;10.174;2024-03-25T06:49:40;4.60;;;0.90;;
1004;SDS011;491;53.480;10.174;2024-03-25T06:52:06;1.90;;;0.40;;
1004;SDS011;491;53.480;10.174;2024-03-25T06:54:32;5.93;;;1.00;;
1004;SDS011;491;53.480;10.174;2024-03-25T06:56:58;2.33;;;0.67;;
1004;SDS011;491;53.480;10.174;2024-03-25T06:59:23;5.00;;;1.00;;
1004;SDS011;491;53.480;10.174;2024-03-25T07:01:50;1.50;;;0.57;;
1004;SDS011;491;53.480;10.174;2024-03-25T07:04:15;3.40;;;0.83;;
1004;SDS011;491;53.480;10.174;2024-03-25T07:06:42;3.23;;;0.93;;
1004;SDS011;491;53.480;10.174;2024-03-25T07:09:07;5.50;;;0.80;;
1004;SDS011;491;53.480;10.174;2024-03-25T07:11:36;2.20;;;0.53;;
1004;SDS011;491;53.480;10.174;2024-03-25T07:14:02;10.80;;;1.33;;
1004;SDS011;491;53.480;10.174;2024-03-25T07:16:27;6.60;;;1.93;;
1004;SDS011;491;53.480;10.174;2024-03-25T07:18:53;3.40;;;1.10;;
1004;SDS011;491;53.480;10.174;2024-03-25T07:21:19;3.70;;;1.43;;
1004;SDS011;491;53.480;10.174;2024-03-25T07:23:45;2.70;;;1.03;;
1004;SDS011;491;53.480;10.174;2024-03-25T07:26:11;5.07;;;1.47;;
1004;SDS011;491;53.480;10.174;2024-03-25T07:28:37;5.73;;;2.70;;
1004;SDS011;491;53.480;10.174;2024-03-25T07:31:03;3.93;;;0.63;;
1004;SDS011;491;53.480;10.174;2024-03-25T07:33:29;5.97;;;2.23;;
1004;SDS011;491;53.480;10.174;2024-03-25T07:35:55;4.83;;;1.27;;
1004;SDS011;491;53.480;10.174;2024-03-25T07:38:21;5.07;;;1.80;;
1004;SDS011;491;53.480;10.174;2024-03-25T07:40:47;6.27;;;1.90;;
1004;SDS011;491;53.480;10.174;2024-03-25T07:43:13;4.20;;;1.00;;
1004;SDS011;491;53.480;10.174;2024-03-25T07:45:39;3.80;;;0.93;;
1004;SDS011;491;53.480;10.174;2024-03-25T07:48:05;3.67;;;1.50;;
1004;SDS011;491;53.480;10.174;2024-03-25T07:50:32;2.70;;;1.07;;
1004;SDS011;491;53.480;10.174;2024-03-25T07:52:58;5.53;;;1.23;;
1004;SDS011;491;53.480;10.174;2024-03-25T07:55:24;3.43;;;1.10;;
1004;SDS011;491;53.480;10.174;2024-03-25T07:57:50;5.00;;;0.90;;
1004;SDS011;491;53.480;10.174;2024-03-25T08:00:16;4.40;;;0.80;;
1004;SDS011;491;53.480;10.174;2024-03-25T08:02:42;2.97;;;1.27;;
1004;SDS011;491;53.480;10.174;2024-03-25T08:05:08;5.87;;;1.30;;
1004;SDS011;491;53.480;10.174;2024-03-25T08:07:34;3.97;;;1.50;;
1004;SDS011;491;53.480;10.174;2024-03-25T08:10:00;4.63;;;0.87;;
1004;SDS011;491;53.480;10.174;2024-03-25T08:12:26;5.00;;;0.90;;
1004;SDS011;491;53.480;10.174;2024-03-25T08:14:52;3.60;;;0.70;;
1004;SDS011;491;53.480;10.174;2024-03-25T08:17:18;3.13;;;0.80;;
1004;SDS011;491;53.480;10.174;2024-03-25T08:19:43;5.50;;;0.93;;
1004;SDS011;491;53.480;10.174;2024-03-25T08:22:09;6.73;;;2.10;;
1004;SDS011;491;53.480;10.174;2024-03-25T08:24:35;6.03;;;1.90;;
1004;SDS011;491;53.480;10.174;2024-03-25T08:27:01;3.70;;;1.47;;
1004;SDS011;491;53.480;10.174;2024-03-25T08:29:28;5.13;;;1.90;;
1004;SDS011;491;53.480;10.174;2024-03-25T08:31:53;3.93;;;1.63;;
1004;SDS011;491;53.480;10.174;2024-03-25T08:34:19;4.23;;;2.17;;
1004;SDS011;491;53.480;10.174;2024-03-25T08:36:46;6.10;;;2.90;;
1004;SDS011;491;53.480;10.174;2024-03-25T08:39:12;9.27;;;2.23;;
1004;SDS011;491;53.480;10.174;2024-03-25T08:41:37;4.27;;;2.00;;
1004;SDS011;491;53.480;10.174;2024-03-25T08:44:03;12.63;;;3.30;;
1004;SDS011;491;53.480;10.174;2024-03-25T08:46:29;7.10;;;2.30;;
1004;SDS011;491;53.480;10.174;2024-03-25T08:48:55;5.80;;;1.53;;
1004;SDS011;491;53.480;10.174;2024-03-25T08:51:21;4.60;;;1.50;;
1004;SDS011;491;53.480;10.174;2024-03-25T08:53:47;16.33;;;2.07;;
1004;SDS011;491;53.480;10.174;2024-03-25T08:56:13;4.50;;;1.73;;
1004;SDS011;491;53.480;10.174;2024-03-25T08:58:39;4.20;;;1.03;;
1004;SDS011;491;53.480;10.174;2024-03-25T09:01:05;7.07;;;1.90;;
1004;SDS011;491;53.480;10.174;2024-03-25T09:03:31;4.73;;;1.37;;
1004;SDS011;491;53.480;10.174;2024-03-25T09:05:58;3.90;;;1.53;;
1004;SDS011;491;53.480;10.174;2024-03-25T09:08:24;6.97;;;1.07;;
1004;SDS011;491;53.480;10.174;2024-03-25T09:10:50;3.37;;;1.23;;
1004;SDS011;491;53.480;10.174;2024-03-25T09:13:29;4.70;;;1.20;;
1004;SDS011;491;53.480;10.174;2024-03-25T09:15:55;5.77;;;1.43;;
1004;SDS011;491;53.480;10.174;2024-03-25T09:18:21;5.70;;;1.27;;
1004;SDS011;491;53.480;10.174;2024-03-25T09:20:47;7.83;;;1.43;;
1004;SDS011;491;53.480;10.174;2024-03-25T09:23:12;4.13;;;0.43;;
1004;SDS011;491;53.480;10.174;2024-03-25T09:25:38;5.97;;;1.30;;
1004;SDS011;491;53.480;10.174;2024-03-25T09:28:04;5.37;;;1.40;;
1004;SDS011;491;53.480;10.174;2024-03-25T09:30:31;6.60;;;1.37;;
1004;SDS011;491;53.480;10.174;2024-03-25T09:32:57;3.57;;;0.97;;
1004;SDS011;491;53.480;10.174;2024-03-25T09:35:23;6.43;;;1.20;;
1004;SDS011;491;53.480;10.174;2024-03-25T09:37:49;5.90;;;1.20;;
1004;SDS011;491;53.480;10.174;2024-03-25T09:40:14;7.73;;;1.37;;
1004;SDS011;491;53.480;10.174;2024-03-25T09:42:42;5.40;;;1.10;;
1004;SDS011;491;53.480;10.174;2024-03-25T09:45:12;4.87;;;0.87;;
1004;SDS011;491;53.480;10.174;2024-03-25T09:47:39;6.63;;;1.50;;
1004;SDS011;491;53.480;10.174;2024-03-25T09:50:06;5.27;;;1.27;;
1004;SDS011;491;53.480;10.174;2024-03-25T09:52:33;8.70;;;0.93;;
1004;SDS011;491;53.480;10.174;2024-03-25T09:54:59;4.27;;;1.47;;
1004;SDS011;491;53.480;10.174;2024-03-25T09:57:25;4.53;;;1.23;;
1004;SDS011;491;53.480;10.174;2024-03-25T09:59:51;2.60;;;0.80;;
1004;SDS011;491;53.480;10.174;2024-03-25T10:02:18;5.03;;;0.80;;
1004;SDS011;491;53.480;10.174;2024-03-25T10:04:47;7.00;;;1.17;;
1004;SDS011;491;53.480;10.174;2024-03-25T10:07:25;3.60;;;0.60;;
1004;SDS011;491;53.480;10.174;2024-03-25T10:09:51;6.10;;;2.63;;
1004;SDS011;491;53.480;10.174;2024-03-25T10:12:17;8.50;;;1.10;;
1004;SDS011;491;53.480;10.174;2024-03-25T10:14:43;8.67;;;1.03;;
1004;SDS011;491;53.480;10.174;2024-03-25T10:17:09;6.20;;;1.40;;
1004;SDS011;491;53.480;10.174;2024-03-25T10:19:36;4.90;;;0.77;;
1004;SDS011;491;53.480;10.174;2024-03-25T10:22:05;3.20;;;0.63;;
1004;SDS011;491;53.480;10.174;2024-03-25T10:24:42;3.87;;;0.73;;
1004;SDS011;491;53.480;10.174;2024-03-25T10:27:26;6.27;;;0.70;;
1004;SDS011;491;53.480;10.174;2024-03-25T10:29:52;6.40;;;1.23;;
1004;SDS011;491;53.480;10.174;2024-03-25T10:32:20;4.70;;;1.30;;
1004;SDS011;491;53.480;10.174;2024-03-25T10:34:46;4.10;;;1.10;;
1004;SDS011;491;53.480;10.174;2024-03-25T10:37:12;6.07;;;1.50;;
1004;SDS011;491;53.480;10.174;2024-03-25T10:39:43;6.50;;;0.90;;
1004;SDS011;491;53.480;10.174;2024-03-25T10:42:14;3.87;;;0.83;;
1004;SDS011;491;53.480;10.174;2024-03-25T10:44:40;6.77;;;1.10;;
1004;SDS011;491;53.480;10.174;2024-03-25T10:47:06;6.10;;;0.70;;
1004;SDS011;491;53.480;10.174;2024-03-25T10:49:33;4.70;;;0.60;;
1004;SDS011;491;53.480;10.174;2024-03-25T10:52:00;6.70;;;0.87;;
1004;SDS011;491;53.480;10.174;2024-03-25T10:54:26;2.13;;;0.43;;
1004;SDS011;491;53.480;10.174;2024-03-25T10:56:55;3.50;;;1.77;;
1004;SDS011;491;53.480;10.174;2024-03-25T10:59:21;3.40;;;0.87;;
1004;SDS011;491;53.480;10.174;2024-03-25T11:01:49;3.50;;;0.80;;
1004;SDS011;491;53.480;10.174;2024-03-25T11:04:15;13.43;;;1.80;;
1004;SDS011;491;53.480;10.174;2024-03-25T11:06:41;6.50;;;1.17;;
1004;SDS011;491;53.480;10.174;2024-03-25T11:09:07;3.77;;;0.90;;
1004;SDS011;491;53.480;10.174;2024-03-25T11:11:33;4.23;;;0.97;;
1004;SDS011;491;53.480;10.174;2024-03-25T11:13:59;5.17;;;1.80;;
1004;SDS011;491;53.480;10.174;2024-03-25T11:16:31;7.47;;;1.23;;
1004;SDS011;491;53.480;10.174;2024-03-25T11:19:03;7.50;;;0.80;;
1004;SDS011;491;53.480;10.174;2024-03-25T11:21:31;3.47;;;0.67;;
1004;SDS011;491;53.480;10.174;2024-03-25T11:24:06;5.00;;;1.10;;
1004;SDS011;491;53.480;10.174;2024-03-25T11:26:32;3.30;;;0.73;;
1004;SDS011;491;53.480;10.174;2024-03-25T11:29:00;2.70;;;0.60;;
1004;SDS011;491;53.480;10.174;2024-03-25T11:31:26;2.17;;;0.50;;
1004;SDS011;491;53.480;10.174;2024-03-25T11:33:53;3.17;;;0.67;;
1004;SDS011;491;53.480;10.174;2024-03-25T11:36:20;4.90;;;0.53;;
1004;SDS011;491;53.480;10.174;2024-03-25T11:38:57;2.90;;;0.70;;
1004;SDS011;491;53.480;10.174;2024-03-25T11:41:23;4.17;;;0.73;;
1004;SDS011;491;53.480;10.174;2024-03-25T11:43:49;3.13;;;1.03;;
1004;SDS011;491;53.480;10.174;2024-03-25T11:46:17;4.53;;;1.20;;
1004;SDS011;491;53.480;10.174;2024-03-25T11:48:43;4.60;;;0.90;;
1004;SDS011;491;53.480;10.174;2024-03-25T11:51:13;4.17;;;0.97;;
1004;SDS011;491;53.480;10.174;2024-03-25T11:53:42;4.60;;;0.87;;
1004;SDS011;491;53.480;10.174;2024-03-25T11:56:08;3.60;;;1.10;;
1004;SDS011;491;53.480;10.174;2024-03-25T11:58:34;5.40;;;0.73;;
1004;SDS011;491;53.480;10.174;2024-03-25T12:00:59;4.80;;;0.93;;
1004;SDS011;491;53.480;10.174;2024-03-25T12:03:26;3.20;;;1.30;;
1004;SDS011;491;53.480;10.174;2024-03-25T12:05:52;4.83;;;0.60;;
1004;SDS011;491;53.480;10.174;2024-03-25T12:08:18;4.10;;;0.83;;
1004;SDS011;491;53.480;10.174;2024-03-25T12:10:44;3.33;;;0.77;;
1004;SDS011;491;53.480;10.174;2024-03-25T12:13:29;4.93;;;0.73;;
1004;SDS011;491;53.480;10.174;2024-03-25T12:15:55;6.40;;;0.97;;
1004;SDS011;491;53.480;10.174;2024-03-25T12:18:21;5.23;;;0.87;;
1004;SDS011;491;53.480;10.174;2024-03-25T12:20:47;3.37;;;1.10;;
1004;SDS011;491;53.480;10.174;2024-03-25T12:23:13;4.27;;;1.33;;
1004;SDS011;491;53.480;10.174;2024-03-25T12:25:39;4.40;;;0.67;;
1004;SDS011;491;53.480;10.174;2024-03-25T12:28:08;3.93;;;0.67;;
1004;SDS011;491;53.480;10.174;2024-03-25T12:30:49;7.10;;;1.33;;
1004;SDS011;491;53.480;10.174;2024-03-25T12:33:16;7.83;;;1.60;;
1004;SDS011;491;53.480;10.174;2024-03-25T12:35:42;3.00;;;1.10;;
1004;SDS011;491;53.480;10.174;2024-03-25T12:38:10;2.73;;;0.43;;
1004;SDS011;491;53.480;10.174;2024-03-25T12:40:46;3.13;;;0.60;;
1004;SDS011;491;53.480;10.174;2024-03-25T12:43:15;4.23;;;0.77;;
1004;SDS011;491;53.480;10.174;2024-03-25T12:45:41;5.07;;;1.20;;
1004;SDS011;491;53.480;10.174;2024-03-25T12:48:08;8.47;;;1.47;;
1004;SDS011;491;53.480;10.174;2024-03-25T12:50:34;4.67;;;0.90;;
1004;SDS011;491;53.480;10.174;2024-03-25T12:53:00;3.57;;;1.27;;
1004;SDS011;491;53.480;10.174;2024-03-25T12:55:25;2.67;;;0.40;;
1004;SDS011;491;53.480;10.174;2024-03-25T12:57:52;2.87;;;0.50;;
1004;SDS011;491;53.480;10.174;2024-03-25T13:00:17;3.77;;;1.07;;
1004;SDS011;491;53.480;10.174;2024-03-25T13:02:44;3.63;;;0.50;;
1004;SDS011;491;53.480;10.174;2024-03-25T13:05:10;3.43;;;0.20;;
1004;SDS011;491;53.480;10.174;2024-03-25T13:07:35;2.33;;;0.60;;
1004;SDS011;491;53.480;10.174;2024-03-25T13:10:01;2.43;;;0.70;;
1004;SDS011;491;53.480;10.174;2024-03-25T13:12:29;2.97;;;0.57;;
1004;SDS011;491;53.480;10.174;2024-03-25T13:14:55;3.10;;;0.97;;
1004;SDS011;491;53.480;10.174;2024-03-25T13:17:23;2.90;;;0.30;;
1004;SDS011;491;53.480;10.174;2024-03-25T13:19:49;5.83;;;0.67;;
1004;SDS011;491;53.480;10.174;2024-03-25T13:22:15;2.97;;;0.73;;
1004;SDS011;491;53.480;10.174;2024-03-25T13:24:41;1.37;;;0.40;;
1004;SDS011;491;53.480;10.174;2024-03-25T13:27:07;2.40;;;0.40;;
1004;SDS011;491;53.480;10.174;2024-03-25T13:29:33;2.53;;;0.67;;
1004;SDS011;491;53.480;10.174;2024-03-25T13:32:02;2.97;;;0.37;;
1004;SDS011;491;53.480;10.174;2024-03-25T13:34:28;6.60;;;0.50;;
1004;SDS011;491;53.480;10.174;2024-03-25T13:36:54;1.60;;;0.70;;
1004;SDS011;491;53.480;10.174;2024-03-25T13:39:19;3.30;;;0.60;;
1004;SDS011;491;53.480;10.174;2024-03-25T13:41:45;2.37;;;0.60;;
1004;SDS011;491;53.480;10.174;2024-03-25T13:44:12;2.67;;;0.20;;
1004;SDS011;491;53.480;10.174;2024-03-25T13:46:38;3.20;;;0.73;;
1004;SDS011;491;53.480;10.174;2024-03-25T13:49:04;1.93;;;0.30;;
1004;SDS011;491;53.480;10.174;2024-03-25T13:51:30;2.50;;;0.80;;
1004;SDS011;491;53.480;10.174;2024-03-25T13:53:56;3.33;;;0.60;;
1004;SDS011;491;53.480;10.174;2024-03-25T13:56:22;6.03;;;0.90;;
1004;SDS011;491;53.480;10.174;2024-03-25T13:58:48;4.57;;;1.90;;
1004;SDS011;491;53.480;10.174;2024-03-25T14:01:13;2.53;;;0.47;;
1004;SDS011;491;53.480;10.174;2024-03-25T14:03:40;2.63;;;0.50;;
1004;SDS011;491;53.480;10.174;2024-03-25T14:06:06;3.17;;;0.63;;
1004;SDS011;491;53.480;10.174;2024-03-25T14:08:32;3.40;;;0.53;;
1004;SDS011;491;53.480;10.174;2024-03-25T14:10:58;2.90;;;0.70;;
1004;SDS011;491;53.480;10.174;2024-03-25T14:13:24;7.97;;;0.70;;
1004;SDS011;491;53.480;10.174;2024-03-25T14:15:50;4.10;;;0.63;;
1004;SDS011;491;53.480;10.174;2024-03-25T14:18:17;5.87;;;0.67;;
1004;SDS011;491;53.480;10.174;2024-03-25T14:20:43;3.80;;;0.90;;
1004;SDS011;491;53.480;10.174;2024-03-25T14:23:09;2.10;;;0.63;;
1004;SDS011;491;53.480;10.174;2024-03-25T14:25:35;5.27;;;0.73;;
1004;SDS011;491;53.480;10.174;2024-03-25T14:28:01;3.43;;;0.40;;
1004;SDS011;491;53.480;10.174;2024-03-25T14:30:27;4.03;;;0.30;;
1004;SDS011;491;53.480;10.174;2024-03-25T14:32:53;2.43;;;0.20;;
1004;SDS011;491;53.480;10.174;2024-03-25T14:35:20;3.37;;;0.73;;
1004;SDS011;491;53.480;10.174;2024-03-25T14:37:46;1.77;;;0.30;;
1004;SDS011;491;53.480;10.174;2024-03-25T14:40:12;3.77;;;0.80;;
1004;SDS011;491;53.480;10.174;2024-03-25T14:42:38;1.30;;;0.20;;
1004;SDS011;491;53.480;10.174;2024-03-25T14:45:04;3.03;;;0.60;;
1004;SDS011;491;53.480;10.174;2024-03-25T14:47:30;1.23;;;0.40;;
1004;SDS011;491;53.480;10.174;2024-03-25T14:49:56;2.73;;;0.60;;
1004;SDS011;491;53.480;10.174;2024-03-25T14:52:22;1.77;;;0.47;;
1004;SDS011;491;53.480;10.174;2024-03-25T14:54:48;2.37;;;0.40;;
1004;SDS011;491;53.480;10.174;2024-03-25T14:57:15;3.33;;;0.30;;
1004;SDS011;491;53.480;10.174;2024-03-25T14:59:42;2.97;;;1.17;;
1004;SDS011;491;53.480;10.174;2024-03-25T15:02:08;3.70;;;0.50;;
1004;SDS011;491;53.480;10.174;2024-03-25T15:04:37;4.60;;;0.70;;
1004;SDS011;491;53.480;10.174;2024-03-25T15:07:08;2.97;;;0.57;;
1004;SDS011;491;53.480;10.174;2024-03-25T15:09:34;3.20;;;0.30;;
1004;SDS011;491;53.480;10.174;2024-03-25T15:12:00;4.20;;;0.47;;